Terminal Aerodrome Forecast
Issued by NWS

Home | Current Version | Previous Version | Text Only | Print | Product List | Glossary On
Versions: 1 2 3 4 5 6 7 8 9 10 11 12 13 14 15 16 17 18 19 20 21 22 23
000
FTUS43 KPAH 160800 AAA
TAFCGI
TAF AMD
KCGI 160858Z 1609/1706 36010KT P6SM BKN014
      TEMPO 1609/1612 SCT014 OVC050
     FM161200 01008KT P6SM SCT020 BKN060
     FM161900 02006KT P6SM SKC
     FM162230 00000KT P6SM SKC=

USA.gov is the U.S. government's official web portal to all federal, state and local government web resources and services.